Weather observations for the past three days for
Tracy Municipal Airport
Imperial (Metric)
Date Time (pdt) Wind (mph) Vis. (mi.) Weather Sky Cond. Temperature (ºF) Relative Humidity Wind Chill (°F) Heat Index (°F) Pressure Precipitation (in)
Air Dwpt 6 hour altimeter (in) sea level (mb) 1 hr 3 hr 6 hr
Max. Min.
04 18:05 E 5 10.00 Overcast SCT043 OVC055 59 59 100% 29.96 0.0
04 17:55 E 5 10.00 Overcast SCT043 OVC055 59 59 100% 29.96 0.0
04 17:35 SE 5 10.00 Overcast FEW029 OVC043 59 59 100% 29.96 0.0
04 16:45 E 8 10.00 Overcast OVC036 60.8 51.8 72% 29.97 0.0
04 16:35 E 8 10.00 Overcast OVC038 62.6 51.8 68% 29.96 0.0
04 16:15 Calm 10.00 Overcast BKN040 OVC046 62.6 50 64% 29.96 0.0
04 15:55 Vrbl 3 10.00 Overcast OVC048 62.6 50 64% 29.96 0.0
04 15:35 SE 6 10.00 Overcast FEW038 OVC048 62.6 50 64% 29.96 0.0
04 15:15 S 5 9.00 Overcast SCT037 OVC047 62.6 50 64% 29.97 0.0
04 14:35 S 7 10.00 Mostly Cloudy BKN055 62.6 48.2 60% 29.97 0.0
04 13:05 Vrbl 6 10.00 Mostly Cloudy BKN041 BKN060 66.2 46.4 49% 29.97 0.0
04 12:55 Calm 10.00 Partly Cloudy SCT042 SCT055 66.2 46.4 49% 29.97 0.0
04 12:35 Calm 10.00 A Few Clouds FEW055 FEW110 64.4 46.4 52% 29.97 0.0
04 12:15 SE 6 G 12 10.00 Fair CLR 64.4 48.2 56% 29.98 0.0
04 11:55 NE 7 10.00 Fair CLR 64.4 48.2 56% 29.98 0.0
04 11:35 E 7 10.00 A Few Clouds FEW120 62.6 48.2 60% 29.98 0.0
04 11:15 E 6 10.00 Partly Cloudy SCT120 62.6 46.4 56% 29.98 0.0
04 10:55 E 6 10.00 Partly Cloudy SCT110 62.6 46.4 56% 29.98 0.0
04 10:35 E 7 10.00 Partly Cloudy SCT110 60.8 46.4 59% 29.98 0.0
04 10:15 E 8 10.00 A Few Clouds FEW120 60.8 46.4 59% 29.97 0.0
04 09:55 E 8 10.00 A Few Clouds FEW120 60.8 46.4 59% 29.97 0.0
04 09:35 E 8 10.00 Partly Cloudy SCT120 60.8 48.2 63% 29.96 0.0
04 08:55 N 6 10.00 Fair CLR 60.8 44.6 55% 29.96 0.0
04 08:35 Calm 10.00 Partly Cloudy SCT060 60.8 44.6 55% 29.96 0.0
04 08:05 SW 5 10.00 Overcast OVC060 59 44.6 59% 29.97 0.0
04 07:55 SW 5 10.00 Overcast OVC060 59 44.6 59% 29.97 0.0
04 07:35 SE 5 10.00 Overcast SCT047 OVC060 57.2 48.2 72% 29.97 0.0
04 07:15 SE 5 10.00 Overcast FEW048 OVC055 55.4 48.2 77% 29.97 0.0
04 06:55 E 5 10.00 Overcast OVC055 55.4 46.4 72% 29.97 0.0
04 06:35 NE 3 10.00 Overcast OVC055 55.4 44.6 67% 29.96 0.0
04 06:15 Calm 10.00 Overcast FEW041 OVC055 55.4 44.6 67% 29.95 0.0
04 04:45 NW 6 10.00 Overcast BKN042 BKN055 OVC075 55.4 44.6 67% 29.94 0.0
04 04:35 N 5 10.00 Overcast SCT044 OVC075 57.2 44.6 63% 29.94 0.0
04 04:15 NW 8 10.00 Overcast SCT045 OVC070 57.2 44.6 63% 29.95 0.0
04 03:55 W 6 G 14 10.00 Overcast OVC065 57.2 44.6 63% 29.94 0.0
04 03:35 W 9 10.00 Overcast OVC060 57.2 44.6 63% 29.94 0.0
04 03:15 NW 8 10.00 Overcast FEW049 OVC060 57.2 44.6 63% 29.94 0.0
04 02:55 NW 7 10.00 Overcast BKN050 OVC060 57.2 44.6 63% 29.95 0.0
04 02:35 Vrbl 6 10.00 Overcast OVC050 57.2 42.8 59% 29.94 0.0
04 02:15 NW 9 10.00 Overcast OVC055 57.2 44.6 63% 29.94 0.0
04 01:55 NW 7 G 14 10.00 Overcast OVC055 57.2 44.6 63% 29.94 0.0
04 01:35 NW 5 G 12 10.00 Overcast OVC050 57.2 44.6 63% 29.95 0.0
04 01:05 NW 9 10.00 Overcast OVC050 57.2 44.6 63% 29.95 0.0
04 00:45 NW 9 G 15 10.00 Overcast OVC050 57.2 44.6 63% 29.94 0.0
04 00:35 W 5 G 12 10.00 Overcast OVC050 57.2 44.6 63% 29.94 0.0
04 00:15 NW 7 G 16 10.00 Overcast OVC049 57.2 44.6 63% 29.94 0.0
03 23:55 W 15 10.00 Overcast BKN048 BKN060 OVC070 57.2 44.6 63% 29.93 0.0
03 23:25 NW 6 G 12 10.00 Partly Cloudy SCT065 57.2 44.6 63% 29.93 0.0
03 23:10 NW 9 10.00 A Few Clouds FEW065 57.2 44.6 63% 29.93 0.0
03 22:20 W 10 10.00 A Few Clouds FEW060 FEW070 57.2 46.4 67% 29.93 0.0
03 22:05 NW 8 10.00 A Few Clouds FEW060 FEW070 57.2 46.4 67% 29.93 0.0
03 21:50 NW 12 10.00 A Few Clouds FEW060 57.2 46.4 67% 29.92 0.0
03 21:25 N 8 10.00 Fair CLR 59 46.4 63% 29.92 0.0
03 21:10 Vrbl 6 G 13 10.00 Fair CLR 59 46.4 63% 29.91 0.0
03 20:55 NW 9 10.00 Fair CLR 59 48.2 68% 29.9 0.0
03 20:25 NW 12 10.00 Mostly Cloudy BKN047 59 46.4 63% 29.9 0.0
03 20:15 NW 15 10.00 A Few Clouds FEW048 60.8 46.4 59% 29.89 0.0
03 19:50 NW 12 G 18 10.00 Fair CLR 60.8 46.4 59% 29.88 0.0
03 19:35 NW 15 10.00 Fair CLR 62.6 46.4 56% 29.87 0.0
03 19:15 W 12 G 18 10.00 Fair CLR 62.6 46.4 56% 29.87 0.0
03 18:55 NW 12 G 21 10.00 A Few Clouds FEW050 64.4 46.4 52% 29.87 0.0
03 18:35 NW 15 G 22 10.00 Partly Cloudy SCT050 64.4 46.4 52% 29.86 0.0
03 18:15 NW 16 G 23 10.00 Fair CLR 66.2 46.4 49% 29.86 0.0
03 17:55 NW 16 G 29 9.00 A Few Clouds FEW049 66.2 46.4 49% 29.86 0.0
03 17:35 NW 16 G 24 10.00 A Few Clouds FEW049 68 46.4 46% 29.86 0.0
03 17:15 NW 17 G 25 10.00 Fair CLR 68 46.4 46% 29.85 0.0
03 16:55 W 14 G 22 10.00 Fair CLR 69.8 46.4 43% 29.85 0.0
03 16:35 W 13 G 22 10.00 Fair CLR 69.8 46.4 43% 29.85 0.0
03 16:15 NW 15 G 21 10.00 A Few Clouds FEW046 69.8 46.4 43% 29.85 0.0
03 15:55 W 13 10.00 A Few Clouds FEW046 FEW055 69.8 46.4 43% 29.85 0.0
03 15:35 NW 15 G 23 10.00 A Few Clouds FEW055 69.8 46.4 43% 29.86 0.0
03 15:15 W 13 G 22 10.00 Mostly Cloudy SCT045 SCT050 BKN060 69.8 46.4 43% 29.86 0.0
03 14:55 NW 14 G 22 10.00 Mostly Cloudy BKN046 BKN050 69.8 46.4 43% 29.87 0.0
03 14:35 NW 14 G 20 10.00 Mostly Cloudy BKN047 BKN055 69.8 48.2 46% 29.87 0.0
03 14:15 W 13 10.00 Mostly Cloudy BKN043 BKN050 69.8 48.2 46% 29.87 0.0
03 13:55 NW 8 10.00 Overcast OVC043 69.8 48.2 46% 29.87 0.0
03 13:35 NW 13 G 18 10.00 Mostly Cloudy BKN043 69.8 48.2 46% 29.87 0.0
03 13:15 NW 14 G 21 10.00 Overcast OVC040 68 48.2 49% 29.87 0.0
03 12:55 NW 15 10.00 Overcast OVC039 68 48.2 49% 29.87 0.0
03 12:35 N 9 G 17 10.00 Overcast OVC038 66.2 48.2 52% 29.88 0.0
03 12:15 Vrbl 6 10.00 Mostly Cloudy BKN037 68 50 53% 29.88 0.0
03 11:55 Vrbl 7 10.00 Mostly Cloudy BKN036 64.4 50 60% 29.89 0.0
03 11:35 E 8 10.00 Fair CLR 66.2 50 56% 29.89 0.0
03 10:45 Vrbl 3 10.00 Fair CLR 62.6 50 64% 29.9 0.0
03 10:35 Vrbl 5 10.00 Fair CLR 64.4 50 60% 29.9 0.0
03 10:15 Vrbl 7 10.00 Fair CLR 62.6 50 64% 29.89 0.0
03 09:55 E 8 10.00 Fair CLR 62.6 50 64% 29.89 0.0
03 09:35 E 9 10.00 Fair CLR 62.6 50 64% 29.88 0.0
03 09:15 E 9 10.00 Fair CLR 60.8 50 68% 29.88 0.0
03 08:55 E 7 10.00 Partly Cloudy SCT110 60.8 50 68% 29.87 0.0
03 08:35 NE 7 10.00 Mostly Cloudy BKN110 59 59 100% 29.87 0.0
03 08:15 NE 3 10.00 Mostly Cloudy BKN110 57.2 57.2 100% 29.87 0.0
03 07:55 Calm 10.00 Mostly Cloudy BKN110 57.2 57.2 100% 29.87 0.0
03 07:30 SE 8 10.00 Mostly Cloudy BKN110 55.4 55.4 100% 29.86 0.0
03 07:10 SE 6 10.00 Partly Cloudy SCT110 55.4 55.4 100% 29.85 0.0
03 06:55 E 6 10.00 Mostly Cloudy BKN110 55.4 55.4 100% 29.85 0.0
03 06:35 E 5 10.00 Overcast OVC110 55.4 53.6 94% 29.83 0.0
03 06:15 Calm 10.00 Overcast OVC110 55.4 51.8 88% 29.82 0.0
03 05:25 Vrbl 7 10.00 Partly Cloudy SCT110 57.2 48.2 72% 29.81 0.0
03 05:15 Calm 10.00 A Few Clouds FEW110 55.4 55.4 100% 29.81 0.0
03 04:55 Calm 10.00 Partly Cloudy SCT110 55.4 53.6 94% 29.81 0.0
03 04:35 Vrbl 3 10.00 A Few Clouds FEW110 57.2 50 77% 29.8 0.0
03 04:15 SW 6 10.00 Fair CLR 57.2 50 77% 29.81 0.0
03 03:55 SW 8 G 15 10.00 A Few Clouds FEW110 59 48.2 68% 29.8 0.0
03 03:35 SW 8 10.00 Fair CLR 57.2 55.4 94% 29.81 0.0
03 03:15 E 5 10.00 Fair CLR 55.4 55.4 100% 29.8 0.0
03 02:55 Calm 10.00 Fair CLR 55.4 55.4 100% 29.81 0.0
03 02:35 NE 5 10.00 Fair CLR 57.2 55.4 94% 29.81 0.0
03 02:15 N 3 10.00 Fair CLR 57.2 55.4 94% 29.81 0.0
03 01:55 N 3 10.00 Fair CLR 57.2 51.8 82% 29.82 0.0
03 01:35 Calm 10.00 Fair CLR 57.2 51.8 82% 29.82 0.0
03 01:15 Calm 10.00 Fair CLR 57.2 51.8 82% 29.82 0.0
03 00:55 Calm 10.00 Fair CLR 59 51.8 77% 29.82 0.0
03 00:35 Calm 10.00 Fair CLR 59 50 72% 29.83 0.0
03 00:15 NE 5 10.00 Fair CLR 59 50 72% 29.83 0.0
02 23:55 NE 5 10.00 Fair CLR 59 50 72% 29.83 0.0
02 23:35 Calm 10.00 Fair CLR 60.8 50 68% 29.83 0.0
02 23:15 Calm 10.00 Fair CLR 60.8 50 68% 29.83 0.0
02 22:55 Calm 10.00 Fair CLR 60.8 50 68% 29.84 0.0
02 22:35 Calm 10.00 Fair CLR 62.6 50 64% 29.84 0.0
02 22:15 SW 7 10.00 Fair CLR 62.6 50 64% 29.84 0.0
02 21:55 SW 7 10.00 Fair CLR 62.6 50 64% 29.84 0.0
02 21:35 Calm 10.00 Fair CLR 62.6 50 64% 29.83 0.0
02 21:15 Calm 10.00 Fair CLR 62.6 50 64% 29.83 0.0
02 20:55 NW 5 10.00 Fair CLR 62.6 50 64% 29.82 0.0
02 20:35 NW 5 10.00 Fair CLR 64.4 50 60% 29.82 0.0
02 20:15 Calm 10.00 Fair CLR 64.4 50 60% 29.81 0.0
02 19:55 Calm 10.00 Fair CLR 64.4 50 60% 29.81 0.0
02 19:35 Calm 10.00 Fair CLR 66.2 50 56% 29.8 0.0
02 19:15 NW 6 10.00 Fair CLR 68 50 53% 29.8 0.0
02 18:55 NW 7 10.00 Fair CLR 68 50 53% 29.8 0.0
02 18:35 NW 7 10.00 Fair CLR 69.8 50 50% 29.8 0.0
02 18:10 NW 9 10.00 Fair CLR 71.6 50 47% 29.81 0.0
02 17:55 NW 14 10.00 Fair CLR 71.6 50 47% 29.81 0.0
02 17:35 NW 9 G 20 10.00 Fair CLR 73.4 50 44% 29.8 0.0
02 17:05 N 12 G 18 10.00 Fair CLR 73.4 50 44% 29.8 0.0
02 16:55 N 10 G 18 10.00 Fair CLR 73.4 50 44% 29.81 0.0
02 16:35 NW 13 G 21 10.00 Fair CLR 73.4 50 44% 29.81 0.0
02 16:15 N 12 G 21 10.00 Fair CLR 75.2 51.8 44% 78 29.81 0.0
02 15:55 NW 14 10.00 Fair CLR 75.2 51.8 44% 78 29.82 0.0
02 15:35 N 8 G 16 10.00 Fair CLR 73.4 51.8 47% 29.83 0.0
02 15:15 N 10 10.00 Fair CLR 73.4 51.8 47% 29.84 0.0
02 14:55 N 9 10.00 Fair CLR 71.6 50 47% 29.85 0.0
02 14:35 N 9 10.00 Fair CLR 69.8 50 50% 29.86 0.0
02 14:15 N 12 10.00 Fair CLR 69.8 51.8 53% 29.87 0.0
02 13:55 NW 10 G 18 10.00 Fair CLR 69.8 51.8 53% 29.87 0.0
02 13:35 NW 14 9.00 Fair CLR 69.8 51.8 53% 29.88 0.0
02 13:15 NW 12 G 18 10.00 Fair CLR 69.8 51.8 53% 29.88 0.0
02 12:55 NW 10 10.00 Fair CLR 71.6 51.8 50% 29.88 0.0
02 12:35 NW 9 10.00 Fair CLR 69.8 51.8 53% 29.89 0.0
02 12:15 NW 10 10.00 Fair CLR 69.8 51.8 53% 29.89 0.0
02 11:55 NW 8 10.00 Fair CLR 69.8 51.8 53% 29.89 0.0
02 11:35 Calm 10.00 Fair CLR 69.8 51.8 53% 29.89 0.0
02 11:15 Calm 10.00 Fair CLR 69.8 51.8 53% 29.89 0.0
02 10:55 Vrbl 5 10.00 Fair CLR 68 51.8 56% 29.9 0.0
02 10:35 Calm 10.00 Fair CLR 66.2 53.6 64% 29.89 0.0
02 10:15 Vrbl 3 10.00 Fair CLR 66.2 53.6 64% 29.89 0.0
02 09:55 E 6 10.00 Fair CLR 62.6 53.6 73% 29.89 0.0
02 09:35 Calm 10.00 Fair CLR 62.6 51.8 68% 29.89 0.0
02 09:15 Vrbl 3 10.00 Fair CLR 62.6 53.6 73% 29.89 0.0
02 08:55 E 5 10.00 Fair CLR 60.8 55.4 83% 29.88 0.0
02 08:35 Calm 10.00 Fair CLR 59 59 100% 29.88 0.0
02 08:15 SE 3 9.00 Fair CLR 59 59 100% 29.88 0.0
02 07:55 SE 3 10.00 Fair CLR 57.2 57.2 100% 29.88 0.0
02 07:05 Calm 8.00 Fair CLR 55.4 55.4 100% 29.87 0.0
02 06:55 Calm 9.00 Fair CLR 55.4 55.4 100% 29.87 0.0
02 06:35 Calm 9.00 Fair CLR 55.4 55.4 100% 29.86 0.0
02 06:15 Calm 10.00 Fair CLR 55.4 55.4 100% 29.86 0.0
02 05:55 Calm 10.00 Fair CLR 55.4 55.4 100% 29.85 0.0
02 05:25 Calm 10.00 Fair CLR 55.4 55.4 100% 29.84 0.0
02 04:45 Calm 10.00 Fair CLR 55.4 55.4 100% 29.85 0.0
02 04:35 Calm 10.00 Fair CLR 55.4 55.4 100% 29.85 0.0
02 04:05 Calm 10.00 Fair CLR 55.4 55.4 100% 29.85 0.0
02 03:55 SE 3 10.00 Fair CLR 55.4 55.4 100% 29.85 0.0
02 03:35 Calm 10.00 Fair CLR 55.4 55.4 100% 29.86 0.0
02 03:15 Calm 10.00 Fair CLR 55.4 55.4 100% 29.85 0.0
02 02:45 SE 3 10.00 Fair CLR 55.4 55.4 100% 29.86 0.0
02 02:35 SE 5 10.00 Fair CLR 55.4 55.4 100% 29.86 0.0
02 02:15 E 6 10.00 Fair CLR 55.4 55.4 100% 29.86 0.0
02 01:55 SE 6 10.00 Fair CLR 57.2 57.2 100% 29.86 0.0
02 01:35 SE 7 10.00 Fair CLR 59 55.4 88% 29.86 0.0
02 01:15 SE 7 10.00 Fair CLR 59 51.8 77% 29.86 0.0
02 00:55 SE 8 10.00 Fair CLR 59 51.8 77% 29.87 0.0
02 00:35 E 3 10.00 Fair CLR 60.8 51.8 72% 29.86 0.0
02 00:15 Calm 10.00 Fair CLR 60.8 50 68% 29.86 0.0
01 23:55 Calm 10.00 Fair CLR 62.6 50 64% 29.86 0.0
01 23:35 N 3 10.00 Fair CLR 62.6 50 64% 29.86 0.0
01 23:15 Calm 10.00 Fair CLR 62.6 50 64% 29.87 0.0
01 22:55 NW 6 10.00 Fair CLR 64.4 50 60% 29.87 0.0
01 22:35 NW 7 10.00 Fair CLR 64.4 50 60% 29.87 0.0
01 22:15 NW 8 10.00 Fair CLR 64.4 50 60% 29.87 0.0
01 21:55 NW 7 10.00 Fair CLR 66.2 50 56% 29.87 0.0
01 21:35 NW 5 10.00 Fair CLR 66.2 50 56% 29.87 0.0
01 21:15 NW 6 10.00 Fair CLR 68 48.2 49% 29.86 0.0
01 20:55 NW 7 10.00 Fair CLR 68 50 53% 29.85 0.0
01 20:35 NW 8 10.00 Fair CLR 69.8 50 50% 29.85 0.0
01 20:15 W 10 10.00 Fair CLR 69.8 50 50% 29.84 0.0
01 19:55 W 13 G 18 10.00 Fair CLR 71.6 50 47% 29.83 0.0
01 19:35 W 9 10.00 Fair CLR 73.4 48.2 41% 29.83 0.0
01 19:15 W 9 10.00 Fair CLR 75.2 50 41% 78 29.83 0.0
01 18:55 NW 13 10.00 Fair CLR 77 50 39% 78 29.83 0.0
Date Time (pdt) Wind (mph) Vis. (mi.) Weather Sky Cond. Air Dwpt Max. Min. Relative Humidity Wind Chill (°F) Heat Index (°F) altimeter (in) sea level (mb) 1 hr 3 hr 6 hr
6 hour
Temperature (ºF) Pressure Precipitation (in)